Main page
Satellite images 10-day forecastsClimateMarine weather Cyclones Lightning AirportsFAQ Newsletter About
Weather : Europe Africa North America South America Asia Australia-Oceania Others
Languages Contact

Viru-Viru, Bolivia

Viru Viru International Airport

latitude: 17-38S, longitude: 063-08W, elevation: 373 m


METAR: SLVR 301700Z 33012G22KT 9999 FEW012 BKN020 31/21 Q1012
TAF: SLVR 301026Z 3012/3112 34006KT 9999 NSC TX32/3020Z TN20/3111Z BECMG 3015/3017 33012KT SCT023 BECMG 3023/3102 35005KT NSC

Time: 13:28 (17:28 UTC)

Current weather observation

The report was made 28 minutes ago, at 17:00 UTC
Wind 12 kt from the North/Northwest with gusts up to 22 kt
Temperature 31°C
Humidity 55%
Pressure 1012 hPa
Visibility 10 km or more
Few clouds at a height of 1200 ft
Broken clouds at a height of 2000 ft

Change units

Forecast

The report was made 7 hours and 2 minutes ago, at 10:26 UTC
Forecast valid from 30 at 12 UTC to 31 at 12 UTC
Wind 6 kt from the North/Northwest
Visibility 10 km or more
Becoming
from 30 at 15 UTC to 30 at 17 UTC
Wind 12 kt from the North/Northwest
Scattered clouds at a height of 2300 ft
Becoming
from 30 at 23 UTC to 31 at 02 UTC
Wind 5 kt from the North
The information on this site is subject to a disclaimer
Weather : Europe Africa North America South America Asia Australia-Oceania Others
Satellite images 10-day forecastsClimateMarine weather Cyclones Lightning AirportsFAQ Languages Contact Newsletter About